Time;durP1;ratioP1;P1;durP2;ratioP2;P2;SDS_P1;SDS_P2;PMS_P1;PMS_P2;Temp;Humidity;BMP_temperature;BMP_pressure;BME280_temperature;BME280_humidity;BME280_pressure;Samples;Min_cycle;Max_cycle;Signal;HPM_P1;HPM_P2
2021/07/24 00:01:52;;;;;;;27.08;15.05;;;;;;;;;;5032415;28;20056;-60
2021/07/24 00:04:18;;;;;;;25.95;15.75;;;;;;;;;;5032173;28;20381;-63
2021/07/24 00:06:45;;;;;;;24.02;15.15;;;;;;;;;;5014753;28;20021;-60
2021/07/24 00:09:12;;;;;;;23.83;13.60;;;;;;;;;;5014742;28;20021;-63
2021/07/24 00:11:38;;;;;;;25.15;13.52;;;;;;;;;;5014631;28;20018;-63
2021/07/24 00:14:04;;;;;;;22.02;13.85;;;;;;;;;;5032515;28;20052;-63
2021/07/24 00:16:30;;;;;;;23.08;13.93;;;;;;;;;;5032003;28;20159;-63
2021/07/24 00:18:56;;;;;;;26.92;14.50;;;;;;;;;;5014600;28;20119;-63
2021/07/24 00:21:22;;;;;;;26.02;15.35;;;;;;;;;;5032382;28;20053;-63
2021/07/24 00:23:48;;;;;;;23.65;13.13;;;;;;;;;;5014392;28;20025;-63
2021/07/24 00:26:15;;;;;;;29.05;17.52;;;;;;;;;;5031806;28;20462;-62
2021/07/24 00:28:41;;;;;;;24.98;12.88;;;;;;;;;;5014268;28;20040;-63
2021/07/24 00:31:07;;;;;;;26.25;15.93;;;;;;;;;;5014451;28;20120;-63
2021/07/24 00:33:34;;;;;;;24.77;14.23;;;;;;;;;;5014385;28;20371;-64
2021/07/24 00:36:00;;;;;;;30.60;21.00;;;;;;;;;;5031989;28;20513;-63
2021/07/24 00:38:26;;;;;;;24.27;15.32;;;;;;;;;;5036066;28;20035;-62
2021/07/24 00:40:54;;;;;;;23.95;12.55;;;;;;;;;;5018271;28;20030;-63
2021/07/24 00:43:21;;;;;;;24.30;14.88;;;;;;;;;;5018492;28;20040;-63
2021/07/24 00:45:48;;;;;;;26.80;16.40;;;;;;;;;;5018093;28;20075;-63
2021/07/24 00:48:19;;;;;;;21.85;12.48;;;;;;;;;;5018466;28;20532;-64
2021/07/24 00:50:48;;;;;;;26.23;13.90;;;;;;;;;;5035998;28;20076;-63
2021/07/24 00:53:21;;;;;;;27.48;16.73;;;;;;;;;;5018114;28;20512;-63
2021/07/24 00:55:48;;;;;;;24.95;15.23;;;;;;;;;;5035934;28;20438;-63
2021/07/24 00:58:27;;;;;;;23.35;12.95;;;;;;;;;;5035794;28;20052;-63
2021/07/24 01:00:54;;;;;;;24.88;14.48;;;;;;;;;;5035637;28;20028;-64
2021/07/24 01:03:20;;;;;;;21.65;12.27;;;;;;;;;;5035659;28;20397;-63
2021/07/24 01:05:49;;;;;;;22.90;13.30;;;;;;;;;;5035438;28;20022;-63
2021/07/24 01:08:15;;;;;;;22.48;11.90;;;;;;;;;;5017880;28;20025;-63
2021/07/24 01:10:41;;;;;;;21.38;11.65;;;;;;;;;;5018287;28;20021;-63
2021/07/24 01:13:07;;;;;;;25.20;13.93;;;;;;;;;;5019121;28;20036;-63
2021/07/24 01:15:33;;;;;;;23.52;11.73;;;;;;;;;;5018246;28;20072;-64
2021/07/24 01:17:59;;;;;;;22.13;12.27;;;;;;;;;;5036158;28;20053;-63
2021/07/24 01:20:26;;;;;;;20.85;11.95;;;;;;;;;;5035562;28;20022;-62
2021/07/24 01:22:52;;;;;;;23.27;13.70;;;;;;;;;;5017615;28;20482;-64
2021/07/24 01:25:18;;;;;;;21.20;11.35;;;;;;;;;;5035111;28;20044;-63
2021/07/24 01:27:45;;;;;;;23.13;12.85;;;;;;;;;;5017545;28;20022;-63
2021/07/24 01:30:12;;;;;;;23.85;13.05;;;;;;;;;;5035301;28;20080;-65
2021/07/24 01:32:38;;;;;;;19.83;10.43;;;;;;;;;;5035244;28;20028;-62
2021/07/24 01:35:05;;;;;;;21.20;11.27;;;;;;;;;;5017356;28;20032;-64
2021/07/24 01:37:31;;;;;;;26.48;13.65;;;;;;;;;;5035244;28;20036;-63
2021/07/24 01:39:57;;;;;;;25.30;14.30;;;;;;;;;;5017763;28;20124;-63
2021/07/24 01:42:23;;;;;;;23.15;12.38;;;;;;;;;;5035065;28;20113;-63
2021/07/24 01:44:51;;;;;;;24.55;12.50;;;;;;;;;;5017247;28;20025;-64
2021/07/24 01:47:17;;;;;;;19.90;10.65;;;;;;;;;;5016776;28;20025;-63
2021/07/24 01:52:47;;;;;;;;;;;;;;;;;;5012429;28;20049;-64
2021/07/24 01:55:16;;;;;;;22.48;11.02;;;;;;;;;;5034653;28;19905;-64
2021/07/24 01:57:43;;;;;;;20.48;11.05;;;;;;;;;;5034755;28;20028;-64
2021/07/24 02:00:10;;;;;;;20.88;10.93;;;;;;;;;;5034893;28;20029;-64
2021/07/24 02:02:37;;;;;;;21.50;11.20;;;;;;;;;;5034668;28;20489;-64
2021/07/24 02:05:05;;;;;;;21.38;11.38;;;;;;;;;;5016790;28;20482;-63
2021/07/24 02:07:35;;;;;;;22.17;11.15;;;;;;;;;;5034875;28;20025;-64
2021/07/24 02:10:02;;;;;;;20.90;11.05;;;;;;;;;;5034639;28;20033;-64
2021/07/24 02:12:28;;;;;;;23.05;11.52;;;;;;;;;;5016694;28;20026;-64
2021/07/24 02:14:54;;;;;;;20.17;11.05;;;;;;;;;;5034285;28;20036;-63
2021/07/24 02:17:21;;;;;;;20.55;10.43;;;;;;;;;;5034562;28;20474;-64
2021/07/24 02:19:47;;;;;;;19.63;10.70;;;;;;;;;;5034856;28;20362;-64
2021/07/24 02:22:13;;;;;;;21.05;10.73;;;;;;;;;;5017166;28;20030;-63
2021/07/24 02:24:39;;;;;;;20.35;10.82;;;;;;;;;;5034696;28;20041;-63
2021/07/24 02:27:09;;;;;;;20.80;10.75;;;;;;;;;;5034551;28;20017;-64
2021/07/24 02:29:35;;;;;;;22.88;11.43;;;;;;;;;;5034847;28;20021;-64
2021/07/24 02:32:01;;;;;;;20.73;10.57;;;;;;;;;;5016771;28;20033;-63
2021/07/24 02:34:27;;;;;;;19.52;10.65;;;;;;;;;;5035078;28;20029;-63
2021/07/24 02:36:53;;;;;;;19.35;10.23;;;;;;;;;;5068224;23;20041;-66
2021/07/24 02:39:19;;;;;;;20.15;10.35;;;;;;;;;;5052350;28;20506;-66
2021/07/24 02:41:45;;;;;;;22.20;11.98;;;;;;;;;;5053817;28;20106;-65
2021/07/24 02:44:11;;;;;;;22.20;11.02;;;;;;;;;;5053794;28;20072;-65
2021/07/24 02:46:37;;;;;;;22.00;11.50;;;;;;;;;;5053317;28;20397;-65
2021/07/24 02:49:03;;;;;;;20.65;10.43;;;;;;;;;;5053886;28;20027;-67
2021/07/24 02:51:29;;;;;;;19.95;10.35;;;;;;;;;;5052473;28;20025;-65
2021/07/24 02:53:55;;;;;;;20.00;11.05;;;;;;;;;;5052141;28;20253;-65
2021/07/24 02:56:21;;;;;;;23.23;12.10;;;;;;;;;;5052089;28;20037;-66
2021/07/24 02:58:47;;;;;;;20.13;11.07;;;;;;;;;;5052067;28;20025;-66
2021/07/24 03:01:13;;;;;;;22.10;11.32;;;;;;;;;;5051142;28;20029;-64
2021/07/24 03:03:39;;;;;;;20.40;10.65;;;;;;;;;;5052067;28;20025;-64
2021/07/24 03:06:05;;;;;;;21.30;11.88;;;;;;;;;;5052118;28;20017;-64
2021/07/24 03:08:31;;;;;;;21.10;11.77;;;;;;;;;;5052002;28;20489;-66
2021/07/24 03:10:57;;;;;;;21.05;11.27;;;;;;;;;;5052228;28;20032;-65
2021/07/24 03:13:23;;;;;;;23.17;11.88;;;;;;;;;;5052850;28;20032;-65
2021/07/24 03:15:49;;;;;;;20.23;10.45;;;;;;;;;;5052005;28;20055;-65
2021/07/24 03:18:15;;;;;;;23.20;11.98;;;;;;;;;;5053576;28;20138;-66
2021/07/24 03:20:41;;;;;;;22.08;11.30;;;;;;;;;;5052300;28;20037;-66
2021/07/24 03:23:06;;;;;;;21.77;10.80;;;;;;;;;;5051890;28;20013;-66
2021/07/24 03:25:32;;;;;;;21.20;11.25;;;;;;;;;;5053118;28;20389;-65
2021/07/24 03:27:59;;;;;;;21.58;10.93;;;;;;;;;;5051780;28;20025;-66
2021/07/24 03:30:25;;;;;;;21.05;11.80;;;;;;;;;;5053470;28;20046;-65
2021/07/24 03:32:50;;;;;;;21.88;10.98;;;;;;;;;;5053376;28;20583;-66
2021/07/24 03:35:16;;;;;;;21.77;11.23;;;;;;;;;;5051462;28;20037;-65
2021/07/24 03:37:42;;;;;;;21.65;11.07;;;;;;;;;;5053462;28;20036;-65
2021/07/24 03:40:09;;;;;;;22.08;12.10;;;;;;;;;;5052173;28;20021;-64
2021/07/24 03:42:35;;;;;;;21.98;10.82;;;;;;;;;;5052115;28;20033;-65
2021/07/24 03:45:01;;;;;;;19.90;10.60;;;;;;;;;;5053222;28;20021;-64
2021/07/24 03:47:27;;;;;;;22.88;12.10;;;;;;;;;;5053261;28;20028;-63
2021/07/24 03:49:52;;;;;;;21.40;11.43;;;;;;;;;;5052141;28;20021;-65
2021/07/24 03:52:18;;;;;;;21.35;11.40;;;;;;;;;;5052019;28;20021;-65
2021/07/24 03:54:44;;;;;;;23.67;12.70;;;;;;;;;;5053530;28;20025;-65
2021/07/24 03:57:10;;;;;;;22.35;11.23;;;;;;;;;;5051915;28;20540;-65
2021/07/24 03:59:36;;;;;;;25.27;11.13;;;;;;;;;;5052452;28;20397;-65
2021/07/24 04:02:05;;;;;;;22.52;11.50;;;;;;;;;;5053963;28;20028;-64
2021/07/24 04:04:31;;;;;;;;;;;;;;;;;;5051142;28;20021;-65
2021/07/24 04:06:57;;;;;;;20.60;10.32;;;;;;;;;;5043247;28;19911;-64
2021/07/24 04:09:23;;;;;;;19.83;10.10;;;;;;;;;;5041140;28;20512;-65
2021/07/24 04:11:49;;;;;;;20.05;10.50;;;;;;;;;;5031856;28;20048;-65
2021/07/24 04:14:15;;;;;;;22.17;11.60;;;;;;;;;;5051535;28;20384;-65
2021/07/24 04:16:41;;;;;;;22.52;11.27;;;;;;;;;;5053126;28;20029;-64
2021/07/24 04:19:07;;;;;;;19.73;10.73;;;;;;;;;;5051665;28;20025;-64
2021/07/24 04:21:33;;;;;;;20.02;11.88;;;;;;;;;;5043983;28;20032;-65
2021/07/24 04:23:59;;;;;;;21.05;10.77;;;;;;;;;;5031724;28;20026;-64
2021/07/24 04:26:25;;;;;;;19.20;10.60;;;;;;;;;;5041306;28;20017;-65
2021/07/24 04:28:51;;;;;;;19.30;10.25;;;;;;;;;;5049521;28;20017;-65
2021/07/24 04:31:17;;;;;;;20.00;10.10;;;;;;;;;;5039734;28;20027;-66
2021/07/24 04:33:45;;;;;;;21.75;10.40;;;;;;;;;;5031279;28;20133;-64
2021/07/24 04:36:12;;;;;;;24.85;10.52;;;;;;;;;;5046772;28;20037;-64
2021/07/24 04:38:38;;;;;;;20.20;11.43;;;;;;;;;;5052168;28;20032;-64
2021/07/24 04:41:04;;;;;;;21.00;11.43;;;;;;;;;;5052196;28;20477;-65
2021/07/24 04:43:30;;;;;;;18.80;9.70;;;;;;;;;;5043922;28;20121;-64
2021/07/24 04:45:56;;;;;;;19.45;10.52;;;;;;;;;;5031610;28;20032;-65
2021/07/24 04:48:22;;;;;;;21.42;9.93;;;;;;;;;;5030653;28;20463;-65
2021/07/24 04:50:53;;;;;;;19.30;9.80;;;;;;;;;;5030746;28;20033;-64
2021/07/24 04:53:19;;;;;;;20.98;11.05;;;;;;;;;;5030859;28;20054;-65
2021/07/24 04:55:46;;;;;;;21.25;10.77;;;;;;;;;;5030782;28;20021;-66
2021/07/24 04:58:12;;;;;;;21.10;9.73;;;;;;;;;;5032055;28;20026;-66
2021/07/24 05:00:39;;;;;;;20.88;10.82;;;;;;;;;;5038879;28;20422;-65
2021/07/24 05:03:05;;;;;;;19.80;10.65;;;;;;;;;;5050676;28;20021;-65
2021/07/24 05:05:32;;;;;;;18.48;9.80;;;;;;;;;;5051544;28;20107;-66
2021/07/24 05:07:58;;;;;;;19.25;10.55;;;;;;;;;;5050597;28;20075;-65
2021/07/24 05:10:23;;;;;;;18.98;10.30;;;;;;;;;;5051848;28;20027;-65
2021/07/24 05:12:49;;;;;;;18.85;9.98;;;;;;;;;;5050716;28;20408;-66
2021/07/24 05:15:15;;;;;;;19.48;10.40;;;;;;;;;;5049990;28;20099;-65
2021/07/24 05:17:41;;;;;;;21.95;11.68;;;;;;;;;;5052186;28;20032;-64
2021/07/24 05:20:08;;;;;;;21.73;10.15;;;;;;;;;;5051502;28;20112;-64
2021/07/24 05:22:34;;;;;;;19.05;10.43;;;;;;;;;;5050263;28;20031;-66
2021/07/24 05:25:00;;;;;;;20.58;10.02;;;;;;;;;;5054742;28;20033;-66
2021/07/24 05:27:26;;;;;;;20.08;10.23;;;;;;;;;;5053968;28;20036;-65
2021/07/24 05:29:52;;;;;;;18.48;9.75;;;;;;;;;;5055149;28;20078;-66
2021/07/24 05:32:18;;;;;;;18.60;9.68;;;;;;;;;;5054068;28;20029;-67
2021/07/24 05:34:44;;;;;;;21.30;10.70;;;;;;;;;;5054200;28;20036;-67
2021/07/24 05:37:10;;;;;;;20.30;11.50;;;;;;;;;;5053897;28;20037;-68
2021/07/24 05:39:36;;;;;;;18.95;9.73;;;;;;;;;;5054305;28;20043;-67
2021/07/24 05:42:02;;;;;;;19.88;10.00;;;;;;;;;;5055498;28;20079;-67
2021/07/24 05:44:28;;;;;;;19.70;10.48;;;;;;;;;;5055745;28;20083;-65
2021/07/24 05:46:54;;;;;;;20.30;10.57;;;;;;;;;;5053946;28;20090;-67
2021/07/24 05:49:20;;;;;;;20.55;10.55;;;;;;;;;;5055158;28;20398;-69
2021/07/24 05:51:46;;;;;;;19.10;9.88;;;;;;;;;;5054276;28;20032;-67
2021/07/24 05:54:12;;;;;;;20.17;10.77;;;;;;;;;;5053852;28;20119;-65
2021/07/24 05:56:38;;;;;;;17.88;10.50;;;;;;;;;;5054657;28;20053;-67
2021/07/24 05:59:04;;;;;;;18.42;10.20;;;;;;;;;;5054902;28;20466;-67
2021/07/24 06:01:30;;;;;;;19.13;9.65;;;;;;;;;;5044435;28;20022;-68
2021/07/24 06:03:56;;;;;;;20.27;10.38;;;;;;;;;;5033766;28;20454;-68
2021/07/24 06:06:23;;;;;;;20.63;10.43;;;;;;;;;;5033445;28;20087;-67
2021/07/24 06:08:48;;;;;;;18.92;10.00;;;;;;;;;;5033520;28;20029;-68
2021/07/24 06:11:15;;;;;;;18.83;10.73;;;;;;;;;;5033516;28;20500;-68
2021/07/24 06:13:41;;;;;;;17.05;9.25;;;;;;;;;;5033308;28;20112;-68
2021/07/24 06:16:10;;;;;;;20.50;10.18;;;;;;;;;;5032890;28;20103;-67
2021/07/24 06:18:36;;;;;;;19.17;10.77;;;;;;;;;;5034532;28;20052;-68
2021/07/24 06:21:02;;;;;;;19.48;10.68;;;;;;;;;;5033273;28;20071;-68
2021/07/24 06:23:28;;;;;;;19.70;11.20;;;;;;;;;;5034452;28;20036;-67
2021/07/24 06:25:55;;;;;;;22.52;11.30;;;;;;;;;;5032779;28;20021;-67
2021/07/24 06:28:23;;;;;;;19.15;10.65;;;;;;;;;;5033029;28;20028;-67
2021/07/24 06:30:49;;;;;;;35.97;26.83;;;;;;;;;;5032870;28;20021;-69
2021/07/24 06:33:15;;;;;;;20.98;11.35;;;;;;;;;;5033100;28;20072;-68
2021/07/24 06:35:41;;;;;;;20.52;11.00;;;;;;;;;;5033600;28;20500;-67
2021/07/24 06:38:09;;;;;;;18.27;10.57;;;;;;;;;;5032658;28;20025;-67
2021/07/24 06:40:35;;;;;;;22.00;11.00;;;;;;;;;;5034018;28;20067;-67
2021/07/24 06:43:01;;;;;;;18.88;10.43;;;;;;;;;;5032575;28;20078;-67
2021/07/24 06:45:26;;;;;;;18.52;10.98;;;;;;;;;;5033327;28;20586;-68
2021/07/24 06:47:53;;;;;;;18.05;10.57;;;;;;;;;;5033983;28;20014;-67
2021/07/24 06:50:23;;;;;;;18.60;10.98;;;;;;;;;;5033735;28;20025;-67
2021/07/24 06:52:49;;;;;;;19.95;11.13;;;;;;;;;;5032486;28;20025;-67
2021/07/24 06:55:15;;;;;;;20.85;11.23;;;;;;;;;;5032394;28;20030;-68
2021/07/24 06:57:41;;;;;;;20.90;11.38;;;;;;;;;;5032537;28;20025;-64
2021/07/24 07:00:07;;;;;;;21.45;11.60;;;;;;;;;;5034035;28;20068;-67
2021/07/24 07:02:33;;;;;;;22.02;11.38;;;;;;;;;;5033893;28;20109;-68
2021/07/24 07:04:59;;;;;;;18.63;11.45;;;;;;;;;;5032283;28;20123;-67
2021/07/24 07:07:25;;;;;;;18.40;11.88;;;;;;;;;;5032277;28;20051;-67
2021/07/24 07:09:51;;;;;;;21.08;12.55;;;;;;;;;;5032403;28;20022;-67
2021/07/24 07:12:17;;;;;;;18.70;11.90;;;;;;;;;;5032168;28;20028;-68
2021/07/24 07:14:43;;;;;;;21.55;11.18;;;;;;;;;;5032048;28;20022;-66
2021/07/24 07:17:09;;;;;;;20.80;12.20;;;;;;;;;;5033297;28;20556;-67
2021/07/24 07:19:36;;;;;;;19.92;11.05;;;;;;;;;;5032146;28;20030;-67
2021/07/24 07:22:03;;;;;;;19.77;12.75;;;;;;;;;;5033400;28;20037;-67
2021/07/24 07:24:29;;;;;;;22.73;13.20;;;;;;;;;;5031955;28;20025;-67
2021/07/24 07:26:55;;;;;;;20.98;12.70;;;;;;;;;;5031800;28;20078;-66
2021/07/24 07:29:21;;;;;;;19.73;11.13;;;;;;;;;;5033092;28;20032;-68
2021/07/24 07:31:47;;;;;;;19.00;11.57;;;;;;;;;;5031713;28;20026;-67
2021/07/24 07:34:13;;;;;;;21.83;12.98;;;;;;;;;;5031746;28;20032;-65
2021/07/24 07:36:38;;;;;;;19.00;11.93;;;;;;;;;;5032605;28;20033;-67
2021/07/24 07:39:05;;;;;;;20.77;12.77;;;;;;;;;;5033148;28;20029;-67
2021/07/24 07:41:31;;;;;;;19.27;13.15;;;;;;;;;;5032022;28;20021;-67
2021/07/24 07:43:57;;;;;;;21.00;13.25;;;;;;;;;;5031112;28;20030;-66
2021/07/24 07:46:23;;;;;;;19.45;12.02;;;;;;;;;;5032321;28;20521;-66
2021/07/24 07:48:49;;;;;;;20.13;13.38;;;;;;;;;;5031907;28;20030;-66
2021/07/24 07:51:15;;;;;;;21.75;14.05;;;;;;;;;;5031615;28;20045;-66
2021/07/24 07:53:41;;;;;;;22.50;12.82;;;;;;;;;;5031510;28;20060;-66
2021/07/24 07:56:09;;;;;;;23.48;13.75;;;;;;;;;;5031148;28;20489;-65
2021/07/24 07:58:36;;;;;;;19.08;13.85;;;;;;;;;;5033104;28;20112;-67
2021/07/24 08:01:09;;;;;;;19.40;12.77;;;;;;;;;;5032627;28;20055;-66
2021/07/24 08:03:35;;;;;;;21.65;14.00;;;;;;;;;;5032623;28;20032;-66
2021/07/24 08:06:01;;;;;;;18.80;13.70;;;;;;;;;;5032382;28;20025;-67
2021/07/24 08:08:27;;;;;;;20.63;14.75;;;;;;;;;;5032637;28;20033;-66
2021/07/24 08:10:53;;;;;;;21.52;13.90;;;;;;;;;;5031341;28;20172;-66
2021/07/24 08:13:19;;;;;;;21.40;13.82;;;;;;;;;;5031184;28;20025;-67
2021/07/24 08:15:46;;;;;;;21.10;14.88;;;;;;;;;;5032010;28;20104;-66
2021/07/24 08:18:12;;;;;;;19.83;13.50;;;;;;;;;;5032710;28;20033;-67
2021/07/24 08:20:41;;;;;;;20.88;13.52;;;;;;;;;;5032366;28;20025;-66
2021/07/24 08:23:08;;;;;;;20.38;13.77;;;;;;;;;;5032853;28;20029;-67
2021/07/24 08:25:37;;;;;;;19.98;13.63;;;;;;;;;;5032425;28;20072;-67
2021/07/24 08:28:04;;;;;;;22.88;14.13;;;;;;;;;;5032793;28;20492;-67
2021/07/24 08:30:30;;;;;;;21.15;14.35;;;;;;;;;;5031386;28;20071;-67
2021/07/24 08:32:56;;;;;;;22.50;13.75;;;;;;;;;;5031695;28;20029;-66
2021/07/24 08:35:22;;;;;;;19.52;13.55;;;;;;;;;;5031787;28;20584;-66
2021/07/24 08:37:48;;;;;;;21.17;13.68;;;;;;;;;;5033403;28;20029;-66
2021/07/24 08:40:14;;;;;;;19.80;13.60;;;;;;;;;;5056574;22;20500;-64
2021/07/24 08:42:41;;;;;;;21.05;14.52;;;;;;;;;;5051656;28;20029;-63
2021/07/24 08:45:08;;;;;;;20.35;14.13;;;;;;;;;;5051203;28;20029;-64
2021/07/24 08:47:34;;;;;;;21.35;14.02;;;;;;;;;;5033721;28;20090;-66
2021/07/24 08:50:00;;;;;;;20.15;13.05;;;;;;;;;;5066063;28;20468;-66
2021/07/24 08:52:28;;;;;;;19.33;14.18;;;;;;;;;;5068361;28;20101;-64
2021/07/24 08:54:56;;;;;;;21.73;13.93;;;;;;;;;;5071328;28;20025;-65
2021/07/24 08:57:24;;;;;;;;;;;;;;;;;;5071367;28;20120;-64
2021/07/24 08:59:51;;;;;;;21.52;14.57;;;;;;;;;;5057150;28;19911;-65
2021/07/24 09:02:20;;;;;;;19.73;14.43;;;;;;;;;;5057351;28;20041;-65
2021/07/24 09:04:48;;;;;;;20.23;14.40;;;;;;;;;;5057373;28;20036;-65
2021/07/24 09:07:15;;;;;;;21.33;13.87;;;;;;;;;;5075143;28;20028;-65
2021/07/24 09:09:44;;;;;;;20.00;14.65;;;;;;;;;;5057355;28;20270;-64
2021/07/24 09:12:10;;;;;;;22.40;14.45;;;;;;;;;;5075150;28;20479;-65
2021/07/24 09:14:36;;;;;;;20.95;14.18;;;;;;;;;;5065879;28;20106;-65
2021/07/24 09:17:03;;;;;;;21.38;14.30;;;;;;;;;;5065304;28;20021;-65
2021/07/24 09:19:30;;;;;;;21.90;14.80;;;;;;;;;;5046712;28;20116;-65
2021/07/24 09:21:56;;;;;;;21.08;14.57;;;;;;;;;;5045311;28;20091;-65
2021/07/24 09:24:23;;;;;;;20.55;14.15;;;;;;;;;;5047067;28;20303;-65
2021/07/24 09:26:50;;;;;;;21.17;14.90;;;;;;;;;;5046642;28;20032;-65
2021/07/24 09:29:20;;;;;;;21.17;14.15;;;;;;;;;;5039693;28;20078;-65
2021/07/24 09:31:47;;;;;;;19.55;14.48;;;;;;;;;;5055070;28;20025;-65
2021/07/24 09:34:14;;;;;;;21.13;14.20;;;;;;;;;;5054399;28;20493;-65
2021/07/24 09:36:40;;;;;;;21.55;14.45;;;;;;;;;;5062306;28;20039;-65
2021/07/24 09:39:14;;;;;;;21.48;14.45;;;;;;;;;;5059631;28;20252;-65
2021/07/24 09:41:44;;;;;;;22.13;14.95;;;;;;;;;;5054518;28;20056;-65
2021/07/24 09:44:10;;;;;;;20.13;14.48;;;;;;;;;;5036694;28;20025;-66
2021/07/24 09:46:36;;;;;;;23.02;14.23;;;;;;;;;;5063095;28;20496;-65
2021/07/24 09:49:10;;;;;;;23.48;15.45;;;;;;;;;;5048252;28;20024;-66
2021/07/24 09:51:37;;;;;;;21.92;15.07;;;;;;;;;;5050031;28;20049;-64
2021/07/24 09:54:03;;;;;;;22.15;14.73;;;;;;;;;;5036625;28;20036;-65
2021/07/24 09:56:40;;;;;;;22.10;14.90;;;;;;;;;;5038916;28;20485;-65
2021/07/24 09:59:18;;;;;;;22.10;15.15;;;;;;;;;;5036234;28;20029;-65
2021/07/24 10:01:44;;;;;;;20.33;15.35;;;;;;;;;;5054124;28;20435;-65
2021/07/24 10:04:11;;;;;;;22.33;16.75;;;;;;;;;;5058516;28;20032;-65
2021/07/24 10:06:39;;;;;;;20.73;15.32;;;;;;;;;;5062484;28;20020;-65
2021/07/24 10:09:05;;;;;;;;;;;;;;;;;;5053818;28;20025;-65
2021/07/24 10:11:31;;;;;;;23.25;15.73;;;;;;;;;;5056421;28;20292;-67
2021/07/24 10:13:57;;;;;;;22.00;15.60;;;;;;;;;;5074227;28;20043;-65
2021/07/24 10:16:24;;;;;;;21.48;15.93;;;;;;;;;;5074212;28;20143;-65
2021/07/24 10:18:50;;;;;;;19.98;15.13;;;;;;;;;;5056259;28;20032;-65
2021/07/24 10:21:16;;;;;;;20.30;15.73;;;;;;;;;;5074069;28;20571;-64
2021/07/24 10:23:42;;;;;;;23.35;16.65;;;;;;;;;;5074097;28;20092;-64
2021/07/24 10:26:14;;;;;;;25.70;16.90;;;;;;;;;;5073245;28;20466;-64
2021/07/24 10:28:59;;;;;;;21.02;15.57;;;;;;;;;;5073270;28;20016;-64
2021/07/24 10:31:42;;;;;;;21.92;16.00;;;;;;;;;;5073689;28;20040;-64
2021/07/24 10:34:09;;;;;;;20.17;16.17;;;;;;;;;;5073569;28;20024;-63
2021/07/24 10:36:39;;;;;;;20.45;15.95;;;;;;;;;;5056084;28;20492;-62
2021/07/24 10:39:11;;;;;;;22.00;15.68;;;;;;;;;;5073584;28;20029;-64
2021/07/24 10:41:38;;;;;;;22.33;16.63;;;;;;;;;;5074199;28;20052;-64
2021/07/24 10:44:04;;;;;;;20.15;15.50;;;;;;;;;;5073833;28;20035;-64
2021/07/24 10:46:43;;;;;;;20.95;16.45;;;;;;;;;;5073999;28;20029;-63
2021/07/24 10:49:09;;;;;;;21.90;16.67;;;;;;;;;;5074082;28;20020;-64
2021/07/24 10:51:53;;;;;;;24.75;16.30;;;;;;;;;;5055554;28;20094;-64
2021/07/24 10:54:19;;;;;;;21.70;16.92;;;;;;;;;;5055383;28;20435;-64
2021/07/24 10:56:45;;;;;;;20.88;17.50;;;;;;;;;;5055027;28;20032;-64
2021/07/24 10:59:17;;;;;;;24.83;16.38;;;;;;;;;;5072698;28;20468;-64
2021/07/24 11:01:59;;;;;;;20.08;17.17;;;;;;;;;;5054801;28;20029;-64
2021/07/24 11:04:37;;;;;;;21.02;16.83;;;;;;;;;;5055140;28;20032;-64
2021/07/24 11:07:13;;;;;;;22.33;17.35;;;;;;;;;;5072709;28;20025;-64
2021/07/24 11:09:42;;;;;;;23.73;17.88;;;;;;;;;;5072993;28;20024;-64
2021/07/24 11:12:09;;;;;;;21.20;16.63;;;;;;;;;;5055490;28;20453;-64
2021/07/24 11:14:35;;;;;;;23.73;18.30;;;;;;;;;;5073444;28;20029;-64
2021/07/24 11:17:07;;;;;;;20.75;17.08;;;;;;;;;;5073581;28;20043;-64
2021/07/24 11:19:33;;;;;;;20.13;17.23;;;;;;;;;;5073503;28;20059;-64
2021/07/24 11:22:09;;;;;;;20.77;17.27;;;;;;;;;;5054906;28;20024;-65
2021/07/24 11:24:35;;;;;;;20.02;17.63;;;;;;;;;;5054402;28;20031;-64
2021/07/24 11:27:01;;;;;;;22.65;18.17;;;;;;;;;;5072480;28;20101;-64
2021/07/24 11:29:27;;;;;;;22.92;18.42;;;31.20;72.50;;;;;;5072359;28;20028;-64
2021/07/24 11:31:52;;;;;;;21.75;17.02;;;32.10;99.90;;;;;;5054501;28;20031;-63
2021/07/24 11:34:22;;;;;;;20.13;17.48;;;31.90;99.90;;;;;;5072715;28;20024;-63
2021/07/24 11:36:51;;;;;;;22.38;18.13;;;32.20;99.90;;;;;;5072203;28;20020;-63
2021/07/24 11:39:25;;;;;;;22.70;18.40;;;32.30;99.60;;;;;;5054118;28;20158;-63
2021/07/24 11:41:51;;;;;;;22.70;17.92;;;32.30;99.90;;;;;;5072333;28;20392;-63
2021/07/24 11:44:48;;;;;;;21.95;18.25;;;32.30;99.40;;;;;;5072150;28;20515;-64
2021/07/24 11:47:15;;;;;;;22.00;18.63;;;32.10;99.10;;;;;;5070423;28;20426;-64
2021/07/24 11:49:44;;;;;;;22.77;17.88;;;32.10;98.80;;;;;;5071814;28;20489;-64
2021/07/24 11:52:10;;;;;;;20.20;17.55;;;32.20;99.30;;;;;;5072385;28;20032;-64
2021/07/24 11:54:36;;;;;;;21.67;18.05;;;32.20;98.90;;;;;;5054613;28;20036;-64
2021/07/24 11:57:03;;;;;;;21.35;17.75;;;32.20;99.30;;;;;;5053979;28;20047;-64
2021/07/24 11:59:31;;;;;;;19.83;17.53;;;32.50;98.50;;;;;;5071920;28;20447;-64
2021/07/24 12:01:58;;;;;;;20.25;17.30;;;;;;;;;;5071762;28;20043;-64
2021/07/24 12:04:24;;;;;;;21.25;17.90;;;;;;;;;;5062480;28;20063;-64
2021/07/24 12:06:50;;;;;;;20.70;17.73;;;;;;;;;;5042415;28;20434;-66
2021/07/24 12:09:17;;;;;;;23.80;18.10;;;;;;;;;;5059484;28;20021;-64
2021/07/24 12:11:55;;;;;;;21.65;18.42;;;32.80;98.10;;;;;;5033810;28;20108;-64
2021/07/24 12:14:23;;;;;;;24.58;18.42;;;35.70;96.30;;;;;;5051766;28;20128;-64
2021/07/24 12:17:02;;;;;;;23.73;19.35;;;36.20;95.90;;;;;;5051200;28;20053;-64
2021/07/24 12:19:34;;;;;;;21.23;17.75;;;;;;;;;;5051732;28;20095;-63
2021/07/24 12:22:11;;;;;;;23.55;18.80;;;;;;;;;;5033946;28;20035;-64
2021/07/24 12:24:36;;;;;;;22.50;18.17;;;;;;;;;;5051723;28;20123;-64
2021/07/24 12:27:10;;;;;;;22.08;18.60;;;36.10;94.80;;;;;;5051349;28;20021;-64
2021/07/24 12:30:01;;;;;;;24.33;19.90;;;34.10;94.70;;;;;;5060982;28;20028;-63
2021/07/24 12:32:40;;;;;;;24.27;18.40;;;34.20;95.20;;;;;;5044354;28;20431;-64
2021/07/24 12:35:22;;;;;;;22.13;18.08;;;34.10;95.20;;;;;;5061024;28;20123;-63
2021/07/24 12:37:48;;;;;;;22.83;19.27;;;;;;;;;;5060216;28;20075;-65
2021/07/24 12:40:14;;;;;;;22.17;18.45;;;;;;;;;;5041074;28;20040;-66
2021/07/24 12:42:40;;;;;;;23.48;18.52;;;;;;;;;;5073746;28;20039;-64
2021/07/24 12:45:07;;;;;;;22.17;19.15;;;33.50;95.50;;;;;;5061157;28;20029;-62
2021/07/24 12:47:38;;;;;;;22.23;19.63;;;31.60;96.90;;;;;;5060360;28;20485;-65
2021/07/24 12:50:14;;;;;;;22.77;19.08;;;31.60;96.90;;;;;;5060016;28;20033;-65
2021/07/24 12:52:49;;;;;;;24.38;18.38;;;30.90;96.80;;;;;;5060054;28;20070;-64
2021/07/24 12:55:18;;;;;;;23.92;19.50;;;;;;;;;;5063140;28;20097;-64
2021/07/24 12:57:44;;;;;;;24.23;19.20;;;;;;;;;;5071180;28;20476;-64
2021/07/24 13:00:20;;;;;;;20.88;18.02;;;;;;;;;;5071035;28;20059;-64
2021/07/24 13:02:46;;;;;;;22.90;19.17;;;;;;;;;;5063510;28;20040;-64
2021/07/24 13:05:13;;;;;;;23.10;19.08;;;;;;;;;;5055710;28;20362;-63
2021/07/24 13:07:40;;;;;;;23.10;18.45;;;;;;;;;;5051039;28;20025;-66
2021/07/24 13:10:07;;;;;;;22.23;19.25;;;;;;;;;;5051011;28;20029;-66
2021/07/24 13:12:33;;;;;;;21.58;18.77;;;;;;;;;;5051253;28;20041;-67
2021/07/24 13:14:59;;;;;;;23.00;18.52;;;;;;;;;;5051384;28;20051;-67
2021/07/24 13:17:26;;;;;;;22.73;19.27;;;;;;;;;;5051177;28;20029;-67
2021/07/24 13:19:52;;;;;;;21.15;18.38;;;;;;;;;;5051703;28;20016;-70
2021/07/24 13:22:18;;;;;;;21.42;18.20;;;;;;;;;;5051477;28;20238;-67
2021/07/24 13:24:44;;;;;;;23.73;18.55;;;;;;;;;;5051031;28;20029;-67
2021/07/24 13:29:54;;;;;;;24.08;18.15;;;;;;;;;;5050683;28;20084;-67
2021/07/24 13:32:20;;;;;;;21.80;18.85;;;;;;;;;;5051179;28;20022;-66
2021/07/24 13:34:48;;;;;;;23.38;18.95;;;;;;;;;;5051215;28;20027;-67
2021/07/24 13:37:22;;;;;;;22.42;19.40;;;;;;;;;;5032806;28;20021;-67
2021/07/24 13:39:49;;;;;;;23.38;19.95;;;;;;;;;;5050999;28;20025;-67
2021/07/24 13:42:15;;;;;;;21.95;18.55;;;;;;;;;;5033353;28;20035;-65
2021/07/24 13:44:41;;;;;;;23.15;19.20;;;;;;;;;;5052782;28;20400;-68
2021/07/24 13:47:07;;;;;;;23.05;19.33;;;;;;;;;;5054413;28;20541;-67
2021/07/24 13:49:36;;;;;;;22.83;18.55;;;;;;;;;;5036732;28;20021;-66
2021/07/24 13:52:03;;;;;;;24.30;18.38;;;;;;;;;;5036789;28;20021;-67
2021/07/24 13:54:33;;;;;;;23.42;18.80;;;;;;;;;;5036631;28;20029;-67
2021/07/24 13:56:59;;;;;;;21.90;17.48;;;;;;;;;;5054142;28;20111;-66
2021/07/24 13:59:26;;;;;;;21.85;18.77;;;;;;;;;;5036446;28;20029;-67
2021/07/24 14:01:52;;;;;;;21.58;18.05;;;;;;;;;;5042874;28;20037;-66
2021/07/24 14:04:18;;;;;;;25.85;19.23;;;;;;;;;;5036094;28;20033;-66
2021/07/24 14:06:44;;;;;;;24.10;19.17;;;;;;;;;;5054474;28;20040;-66
2021/07/24 14:09:10;;;;;;;23.90;19.15;;;;;;;;;;5054181;28;20492;-67
2021/07/24 14:11:36;;;;;;;21.00;18.60;;;;;;;;;;5036765;28;20017;-67
2021/07/24 14:14:02;;;;;;;21.50;18.23;;;;;;;;;;5036133;28;20032;-66
2021/07/24 14:16:28;;;;;;;21.15;18.25;;;;;;;;;;5036178;28;20032;-67
2021/07/24 14:18:54;;;;;;;22.20;17.30;;;;;;;;;;5054117;28;20025;-67